Flight Track Log - Related Links

Times and Time Zones

All times are in EDT time to prevent confusion due to time zone crossing. See the N1253W flight status page for this flight to view local times or setup timezone preferences in your user account.

Time Position Orientation Groundspeed Altitude Reporting Facility
EDT Latitude Longitude Course Direction KTS MPH feet Rate Location/Type
Tue 04:16:58 PM 37.9375 -100.7222 74° East 123 142 3,500  Level Kansas City Center
Tue 04:17:59 PM 37.9614 -100.6922 45° Northeast 144 166 5,700 1,756 Climbing Kansas City Center
Tue 04:19:01 PM 37.9747 -100.6328 74° East 151 174 7,100 1,296 Climbing Kansas City Center
Tue 04:20:04 PM 37.9858 -100.5711 77° East 170 196 8,400 1,548 Climbing Kansas City Center
Tue 04:21:00 PM 38.0350 -100.0925 74° East  Level FlightAware Approximate
Tue 04:21:05 PM 38.0011 -100.4925 76° East 193 222 10,300  Level Kansas City Center
Tue 04:22:00 PM 38.0581 -99.9886 74° East  Level FlightAware Approximate
Tue 04:22:09 PM 38.0131 -100.4250 77° East 201 231 12,300  Level Kansas City Center
Tue 04:23:10 PM 38.0264 -100.3578 76° East 204 235 13,900 1,645 Climbing Kansas City Center
Tue 04:24:13 PM 38.0422 -100.2778 76° East 208 239 15,700 1,536 Climbing Kansas City Center
Tue 04:25:15 PM 38.0550 -100.2058 77° East 215 247 17,100 1,574 Climbing Kansas City Center
Tue 04:26:15 PM 38.0708 -100.1222 76° East 218 251 18,900 1,452 Climbing Kansas City Center
Tue 04:27:19 PM 38.0847 -100.0511 76° East 218 251 20,100 1,200 Climbing Kansas City Center
Tue 04:28:20 PM 38.1006 -99.9644 77° East 224 258 21,400 1,131 Climbing Kansas City Center
Tue 04:29:21 PM 38.1156 -99.8889 76° East 228 262 22,400 960 Climbing Kansas City Center
Tue 04:30:25 PM 38.1319 -99.7969 77° East 238 274 23,400 816 Climbing Kansas City Center
Tue 04:31:26 PM 38.1464 -99.7169 77° East 241 277 24,100 768 Climbing Kansas City Center
Tue 04:32:30 PM 38.1656 -99.6200 76° East 250 288 25,000 912 Climbing Kansas City Center
Tue 04:33:31 PM 38.1808 -99.5344 77° East 257 296 26,000 787 Climbing Kansas City Center
Tue 04:34:32 PM 38.1958 -99.4581 76° East 252 290 26,600 480 Climbing Kansas City Center
Tue 04:35:36 PM 38.2153 -99.3475 77° East 262 302 27,000 194 Climbing Kansas City Center
Tue 04:36:36 PM 38.2342 -99.2417 77° East 299 344 27,000  Level Kansas City Center
Tue 04:37:40 PM 38.2556 -99.1306 76° East 318 366 27,000  Level Kansas City Center
Tue 04:38:41 PM 38.2761 -99.0150 77° East 331 381 27,000  Level Kansas City Center
Tue 04:39:42 PM 38.2967 -98.8997 77° East 334 384 27,000  Level Kansas City Center
Tue 04:40:43 PM 38.3197 -98.7814 76° East 342 394 27,000  Level Kansas City Center
Tue 04:41:47 PM 38.3367 -98.6394 81° East 337 388 27,000  Level Kansas City Center
Tue 04:42:49 PM 38.3408 -98.5214 87° East 335 386 27,000  Level Kansas City Center
Tue 04:43:50 PM 38.3464 -98.4033 87° East 333 383 27,000  Level Kansas City Center
Tue 04:44:54 PM 38.3511 -98.2847 87° East 334 384 27,000  Level Kansas City Center
Tue 04:45:55 PM 38.3569 -98.1672 86° East 332 382 27,000  Level Kansas City Center
Tue 04:46:55 PM 38.3589 -98.0497 89° East 331 381 27,000  Level Kansas City Center
Tue 04:48:00 PM 38.3592 -97.9347 90° East 324 373 27,000  Level Kansas City Center
Tue 04:49:00 PM 38.3633 -97.8031 88° East 311 358 27,000  Level Kansas City Center
Tue 04:50:04 PM 38.3664 -97.6944 88° East 306 352 27,000  Level Kansas City Center
Tue 04:51:05 PM 38.3669 -97.5869 90° East 303 349 27,000 197 Level Kansas City Center
Tue 04:52:06 PM 38.3578 -97.4842 96° East 294 338 27,400 624 Climbing Kansas City Center
Tue 04:53:10 PM 38.3511 -97.3878 95° East 278 320 28,300 768 Climbing Kansas City Center
Tue 04:54:11 PM 38.3531 -97.2942 88° East 268 308 29,000 344 Climbing Kansas City Center
Tue 04:55:12 PM 38.3603 -97.1950 85° East 278 320 29,000  Level Kansas City Center
Tue 04:56:15 PM 38.3683 -97.0689 85° East 297 342 29,000  Level Kansas City Center
Tue 04:57:16 PM 38.3869 -96.9581 78° East 318 366 29,000  Level Kansas City Center
Tue 04:58:20 PM 38.4067 -96.8481 77° East 319 367 29,000  Level Kansas City Center
Tue 04:59:21 PM 38.4269 -96.7375 77° East 321 369 29,000  Level Kansas City Center
Tue 05:00:23 PM 38.4481 -96.6239 77° East 327 376 29,000  Level Kansas City Center
Tue 05:01:24 PM 38.4711 -96.4936 77° East 329 379 29,000  Level Kansas City Center
Tue 05:02:27 PM 38.4908 -96.3808 77° East 337 388 29,000  Level Kansas City Center
Tue 05:03:31 PM 38.5147 -96.2481 77° East 344 396 29,000  Level Kansas City Center
Tue 05:04:32 PM 38.5347 -96.1331 77° East 346 398 29,000  Level Kansas City Center
Tue 05:05:33 PM 38.5561 -95.9967 79° East 349 402 29,000  Level Kansas City Center
Tue 05:06:34 PM 38.5778 -95.8836 76° East 346 398 29,000  Level Kansas City Center
Tue 05:07:38 PM 38.6014 -95.7506 77° East 343 395 29,000  Level Kansas City Center
Tue 05:08:38 PM 38.6203 -95.6369 78° East 342 394 29,000  Level Kansas City Center
Tue 05:09:43 PM 38.6425 -95.5039 78° East 343 395 29,000  Level Kansas City Center
Tue 05:10:44 PM 38.6625 -95.3894 77° East 346 398 29,000  Level Kansas City Center
Tue 05:11:45 PM 38.6847 -95.2569 78° East 343 395 29,000  Level Kansas City Center
Tue 05:12:48 PM 38.7039 -95.1447 78° East 339 390 29,000  Level Kansas City Center
Tue 05:13:49 PM 38.7261 -95.0114 78° East 344 396 29,000  Level Kansas City Center
Tue 05:14:51 PM 38.7444 -94.8994 78° East 340 391 29,000  Level Kansas City Center
Tue 05:15:54 PM 38.7664 -94.7672 78° East 339 390 29,000  Level Kansas City Center
Tue 05:16:55 PM 38.7850 -94.6536 78° East 342 394 29,000  Level Kansas City Center
Tue 05:17:59 PM 38.8061 -94.5214 78° East 342 394 29,000  Level Kansas City Center
Tue 05:19:00 PM 38.8236 -94.4075 79° East 341 392 29,000  Level Kansas City Center
Tue 05:20:01 PM 38.8450 -94.2747 78° East 342 394 29,000  Level Kansas City Center
Tue 05:21:05 PM 38.8633 -94.1606 78° East 341 392 29,000  Level Kansas City Center
Tue 05:22:06 PM 38.8808 -94.0447 79° East 345 397 29,000  Level Kansas City Center
Tue 05:23:07 PM 38.9031 -93.9106 78° East 345 397 29,000  Level Kansas City Center
Tue 05:24:11 PM 38.9203 -93.7944 79° East 345 397 29,000  Level Kansas City Center
Tue 05:25:11 PM 38.9419 -93.6625 78° East 346 398 29,000  Level Kansas City Center
Tue 05:26:15 PM 38.9608 -93.5403 79° East 347 399 29,000  Level Kansas City Center
Tue 05:27:15 PM 38.9778 -93.4208 80° East 343 395 29,000  Level Kansas City Center
Tue 05:28:19 PM 38.9958 -93.2992 79° East 343 395 29,000  Level Kansas City Center
Tue 05:29:19 PM 39.0167 -93.1628 79° East 341 392 29,000  Level Kansas City Center
Tue 05:30:20 PM 39.0339 -93.0442 79° East 342 394 29,000  Level Kansas City Center
Tue 05:31:24 PM 39.0517 -92.9275 79° East 339 390 29,000  Level Kansas City Center
Tue 05:32:25 PM 39.0692 -92.8083 79° East 340 391 29,000  Level Kansas City Center
Tue 05:33:29 PM 39.0881 -92.6761 80° East 340 391 29,000  Level Kansas City Center
Tue 05:34:30 PM 39.1050 -92.5547 80° East 341 392 29,000  Level Kansas City Center
Tue 05:35:31 PM 39.1222 -92.4344 80° East 341 392 29,000  Level Kansas City Center
Tue 05:36:35 PM 39.1389 -92.3125 80° East 342 394 29,000  Level Kansas City Center
Tue 05:37:34 PM 39.1589 -92.1672 80° East 342 394 29,000  Level Kansas City Center
Tue 05:38:38 PM 39.1758 -92.0456 80° East 344 396 29,000  Level Kansas City Center
Tue 05:39:38 PM 39.1922 -91.9261 80° East 340 391 29,000  Level Kansas City Center
Tue 05:40:43 PM 39.2089 -91.8078 80° East 338 389 29,000  Level Kansas City Center
Tue 05:41:44 PM 39.2247 -91.6900 80° East 335 386 29,000  Level Kansas City Center
Tue 05:42:44 PM 39.2411 -91.5714 80° East 336 387 29,000  Level Kansas City Center
Tue 05:43:48 PM 39.2558 -91.4522 81° East 336 387 29,000  Level Kansas City Center
Tue 05:44:49 PM 39.2714 -91.3319 80° East 339 390 29,000  Level Kansas City Center
Tue 05:45:52 PM 39.2911 -91.1878 80° East 340 391 29,000  Level Kansas City Center
Tue 05:46:53 PM 39.3067 -91.0661 81° East 342 394 29,000  Level Kansas City Center
Tue 05:47:57 PM 39.3217 -90.9453 81° East 341 392 29,000  Level Kansas City Center
Tue 05:48:58 PM 39.3381 -90.8233 80° East 343 395 29,000  Level Kansas City Center
Tue 05:50:00 PM 39.3531 -90.7008 81° East 344 396 29,000  Level Kansas City Center
Tue 05:51:03 PM 39.3681 -90.5792 81° East 343 395 29,000  Level Kansas City Center
Tue 05:52:04 PM 39.3836 -90.4572 81° East 344 396 29,000  Level Kansas City Center
Tue 05:53:06 PM 39.4019 -90.3117 81° East 342 394 29,000  Level Kansas City Center
Tue 05:54:08 PM 39.4169 -90.1903 81° East 342 394 29,000  Level Kansas City Center
Tue 05:55:09 PM 39.4319 -90.0683 81° East 343 395 29,000  Level Kansas City Center
Tue 05:56:13 PM 39.4453 -89.9467 82° East 342 394 29,000  Level Kansas City Center
Tue 05:57:13 PM 39.4589 -89.8272 82° East 339 390 29,000  Level Kansas City Center
Tue 05:58:17 PM 39.4739 -89.7072 81° East 337 388 29,000  Level Kansas City Center
Tue 05:59:17 PM 39.4894 -89.5647 82° East 335 386 29,000  Level Kansas City Center
Tue 06:00:21 PM 39.5039 -89.4483 81° East 332 382 29,000  Level Kansas City Center
Tue 06:01:21 PM 39.5175 -89.3325 81° East 328 377 29,000  Level Kansas City Center
Tue 06:02:23 PM 39.5306 -89.2122 82° East 331 381 29,000  Level Kansas City Center
Tue 06:03:27 PM 39.5419 -89.0953 83° East 331 381 29,000  Level Kansas City Center
Tue 06:04:27 PM 39.5550 -88.9764 82° East 332 382 29,000  Level Kansas City Center
Tue 06:05:31 PM 39.5725 -88.8322 81° East 334 384 29,000  Level Kansas City Center
Tue 06:06:33 PM 39.5853 -88.7150 82° East 334 384 29,000  Level Kansas City Center
Tue 06:07:34 PM 39.5981 -88.5964 82° East 333 383 29,000  Level Kansas City Center
Tue 06:08:37 PM 39.6103 -88.4861 82° East 332 382 29,000  Level Kansas City Center
Tue 06:09:38 PM 39.6256 -88.3417 82° East 334 384 29,000  Level Kansas City Center
Tue 06:10:41 PM 39.6394 -88.2189 82° East 337 388 29,000  Level Kansas City Center
Tue 06:11:42 PM 39.6508 -88.1014 83° East 333 383 29,000  Level Kansas City Center
Tue 06:12:19 PM 39.6575 -88.0292 83° East 335 386 29,000  Level Indianapolis Center
Tue 06:13:21 PM 39.6697 -87.9094 82° East 335 386 29,000  Level Indianapolis Center
Tue 06:14:23 PM 39.6817 -87.7889 83° East 335 386 29,000  Level Indianapolis Center
Tue 06:15:25 PM 39.6936 -87.6675 83° East 336 387 29,000  Level Indianapolis Center
Tue 06:16:27 PM 39.7069 -87.5233 83° East 334 384 29,000  Level Indianapolis Center
Tue 06:17:29 PM 39.7192 -87.4031 82° East 334 384 29,000  Level Indianapolis Center
Tue 06:18:31 PM 39.7311 -87.2825 83° East 334 384 29,000  Level Indianapolis Center
Tue 06:19:33 PM 39.7428 -87.1639 83° East 332 382 29,000  Level Indianapolis Center
Tue 06:20:36 PM 39.7531 -87.0428 84° East 334 384 29,000  Level Indianapolis Center
Tue 06:21:38 PM 39.7650 -86.9222 83° East 335 386 29,000  Level Indianapolis Center
Tue 06:22:40 PM 39.7758 -86.8019 83° East 335 386 29,000  Level Indianapolis Center
Tue 06:23:42 PM 39.7894 -86.6581 83° East 334 384 29,000  Level Indianapolis Center
Tue 06:24:44 PM 39.8000 -86.5372 83° East 335 386 29,000  Level Indianapolis Center
Tue 06:25:46 PM 39.8103 -86.4164 84° East 335 386 29,000  Level Indianapolis Center
Tue 06:26:48 PM 39.8286 -86.2975 79° East 335 386 29,000  Level Indianapolis Center
Tue 06:27:50 PM 39.8547 -86.1800 74° East 337 388 29,000  Level Indianapolis Center
Tue 06:28:52 PM 39.8806 -86.0628 74° East 336 387 29,000  Level Indianapolis Center
Tue 06:29:54 PM 39.9075 -85.9308 75° East 339 390 29,000  Level Indianapolis Center
Tue 06:30:56 PM 39.9325 -85.8133 74° East 337 388 29,000  Level Indianapolis Center
Tue 06:31:58 PM 39.9569 -85.6950 75° East 336 387 29,000  Level Indianapolis Center
Tue 06:33:00 PM 39.9822 -85.5764 74° East 337 388 29,000  Level Indianapolis Center
Tue 06:34:02 PM 40.0069 -85.4572 75° East 339 390 29,000  Level Indianapolis Center
Tue 06:35:04 PM 40.0353 -85.3192 75° East 336 387 29,000  Level Indianapolis Center
Tue 06:36:06 PM 40.0600 -85.1992 75° East 340 391 29,000  Level Indianapolis Center
Tue 06:37:08 PM 40.0847 -85.0783 75° East 342 394 29,000  Level Indianapolis Center
Tue 06:38:10 PM 40.1078 -84.9575 76° East 341 392 29,000 -48 Level Indianapolis Center
Tue 06:39:12 PM 40.1322 -84.8364 75° East 342 394 28,900 -768 Descending Indianapolis Center
Tue 06:40:15 PM 40.1572 -84.7081 76° East 364 419 27,400 -1,392 Descending Indianapolis Center
Tue 06:41:17 PM 40.1839 -84.5764 75° East 370 426 26,000 -1,597 Descending Indianapolis Center
Tue 06:42:19 PM 40.2150 -84.4222 75° East 372 428 24,100 -1,694 Descending Indianapolis Center
Tue 06:43:21 PM 40.2386 -84.2936 76° East 362 417 22,500 -1,548 Descending Indianapolis Center
Tue 06:44:23 PM 40.2631 -84.1678 76° East 354 407 20,900 -1,548 Descending Indianapolis Center
Tue 06:45:25 PM 40.2883 -84.0433 75° East 351 404 19,300 -1,597 Descending Indianapolis Center
Tue 06:46:27 PM 40.3136 -83.9131 76° East 363 418 17,600 -1,645 Descending Indianapolis Center
Tue 06:47:29 PM 40.3411 -83.7811 75° East 370 426 15,900 -1,597 Descending Indianapolis Center
Tue 06:48:31 PM 40.3656 -83.6522 76° East 363 418 14,300 -1,641 Descending Indianapolis Center
Tue 06:49:26 PM 40.3908 -83.5242 75° East 353 406 12,700 -1,691 Descending Indianapolis Center
Tue 06:50:21 PM 40.3881 -83.4197 92° East 307 353 11,200 -1,862 Descending Indianapolis Center
Tue 06:51:22 PM 40.3492 -83.3164 116° Southeast 308 354 9,100 -1,895 Descending Indianapolis Center
Tue 06:51:37 PM 40.3389 -83.2933 120° Southeast 310 357 8,800 -1,500 Descending Indianapolis Center
Tue 06:52:22 PM 40.3153 -83.2331 117° Southeast 243 280 7,600 -1,742 Descending Indianapolis Center
Tue 06:52:39 PM 40.3061 -83.2136 122° Southeast 255 293 7,000 -1,377 Descending Indianapolis Center
Tue 06:53:23 PM 40.2825 -83.1608 120° Southeast 228 262 6,200 -1,258 Descending Indianapolis Center
Tue 06:53:41 PM 40.2742 -83.1403 118° Southeast 233 268 5,700 -1,452 Descending Indianapolis Center
Tue 06:54:25 PM 40.2500 -83.0861 120° Southeast 236 272 4,700 -1,258 Descending Indianapolis Center
Tue 06:54:43 PM 40.2428 -83.0647 114° Southeast 234 269 4,400 -778 Descending Indianapolis Center
Tue 06:55:19 PM 40.2233 -83.0200 120° Southeast 221 254 4,000 -387 Descending Indianapolis Center
Tue 06:55:45 PM 40.2117 -82.9936 120° Southeast 229 264 4,000  Level Indianapolis Center
Tue 06:56:20 PM 40.1978 -82.9625 120° Southeast 173 199 4,000 -97 Level Indianapolis Center
Tue 06:56:47 PM 40.1856 -82.9461 134° Southeast 195 224 3,900 -590 Descending Indianapolis Center
Tue 06:57:21 PM 40.1553 -82.9414 173° South 153 176 3,400 -677 Descending Indianapolis Center
Tue 06:57:49 PM 40.1403 -82.9356 163° South 171 197 3,200 -295 Descending Indianapolis Center
Tue 06:58:22 PM 40.1119 -82.9336 177° South 157 181 3,100 -387 Descending Indianapolis Center
Tue 06:58:51 PM 40.1019 -82.9456 222° Southwest 158 182 2,800 -689 Descending Indianapolis Center
Tue 06:59:23 PM 40.0842 -82.9739 231° Southwest 145 167 2,400 -871 Descending Indianapolis Center
Tue 06:59:53 PM 40.0792 -82.9978 255° West 147 169 1,900 -885 Descending Indianapolis Center
Tue 07:00:24 PM 40.0786 -83.0225 268° West 137 158 1,500 -774 Descending Indianapolis Center
Tue 07:00:55 PM 40.0775 -83.0464 267° West 138 159 1,100 -323 Descending Indianapolis Center
Tue 07:01:57 PM 40.0764 -83.0892 268° West 135 155 1,000 -97 Descending Indianapolis Center
Tue 07:03:00 PM 40.0667 -83.0667 90° East  Level FlightAware Approximate

Login

Don't have an account? Register now (free) for customized features, flight alerts, and more!